Time;durP1;ratioP1;P1;durP2;ratioP2;P2;SDS_P1;SDS_P2;PMS_P1;PMS_P2;Temp;Humidity;BMP_temperature;BMP_pressure;BME280_temperature;BME280_humidity;BME280_pressure;Samples;Min_cycle;Max_cycle;Signal;HPM_P1;HPM_P2
2022/01/02 00:00:11;;;;;;;8.48;3.90;;;;;;;10.74;84.39;101626.00;6280474;22;19903;-90
2022/01/02 00:02:38;;;;;;;5.72;3.90;;;;;;;10.89;84.16;101645.75;6255225;22;20010;-89
2022/01/02 00:05:15;;;;;;;7.60;4.30;;;;;;;10.64;84.34;101610.88;6279538;22;20003;-89
2022/01/02 00:08:11;;;;;;;11.07;4.57;;;;;;;10.94;84.17;101648.72;6279692;22;20322;-89
2022/01/02 00:10:48;;;;;;;9.10;4.20;;;;;;;10.78;84.05;101643.59;6280092;22;19999;-89
2022/01/02 00:13:24;;;;;;;8.10;4.10;;;;;;;10.77;84.02;101642.72;6279536;22;20065;-89
2022/01/02 00:15:59;;;;;;;7.95;4.22;;;;;;;10.79;84.00;101654.25;6280003;22;20011;-89
2022/01/02 00:19:02;;;;;;;15.13;4.22;;;;;;;10.95;84.28;101682.94;6280227;22;20007;-90
2022/01/02 00:21:29;;;;;;;7.68;4.18;;;;;;;10.60;83.86;101603.34;6280322;22;20333;-90
2022/01/02 00:24:03;;;;;;;7.85;4.18;;;;;;;10.79;84.00;101637.09;6280219;22;19999;-90
2022/01/02 00:26:41;;;;;;;8.98;4.35;;;;;;;10.77;83.89;101629.16;6280145;22;20003;-89
2022/01/02 00:29:08;;;;;;;6.50;4.30;;;;;;;10.85;83.79;101637.16;6280304;22;20007;-90
2022/01/02 00:31:34;;;;;;;9.13;3.78;;;;;;;10.82;84.42;101639.41;6279889;22;20426;-90
2022/01/02 00:34:02;;;;;;;7.43;3.90;;;;;;;10.66;85.60;101613.44;6254109;22;20015;-90
2022/01/02 00:36:28;;;;;;;11.65;4.30;;;;;;;10.56;87.42;101629.22;6279814;22;20007;-89
2022/01/02 00:38:54;;;;;;;8.50;4.38;;;;;;;10.39;90.48;101634.06;6279239;22;20010;-89
2022/01/02 00:41:26;;;;;;;4.90;3.50;;;;;;;10.20;92.73;101647.19;6279799;22;19999;-90
2022/01/02 00:44:03;;;;;;;;;;;;;;;10.03;92.18;101646.63;6279982;22;20014;-90
2022/01/02 00:46:33;;;;;;;13.25;5.00;;;;;;;9.77;95.84;101630.91;6279606;22;19910;-89
2022/01/02 00:49:04;;;;;;;9.65;4.43;;;;;;;9.74;97.63;101644.84;6306525;22;20011;-89
2022/01/02 00:51:47;;;;;;;10.90;5.18;;;;;;;9.72;98.89;101653.16;6279092;22;20000;-89
2022/01/02 00:54:17;;;;;;;9.15;5.40;;;;;;;9.49;100.00;101634.31;6279037;22;20393;-89
2022/01/02 00:56:47;;;;;;;10.13;5.03;;;;;;;9.12;100.00;101579.25;6278839;22;20459;-90
2022/01/02 00:59:37;;;;;;;14.05;4.82;;;;;;;9.43;100.00;101633.22;6254068;22;20011;-90
2022/01/02 01:02:04;;;;;;;12.90;5.65;;;;;;;9.15;100.00;101591.59;6279558;22;20018;-90
2022/01/02 01:04:36;;;;;;;14.27;5.82;;;;;;;9.24;100.00;101610.25;6254023;22;20868;-90
2022/01/02 01:07:05;;;;;;;12.77;5.80;;;;;;;9.11;100.00;101591.97;6279719;22;20000;-90
2022/01/02 01:09:32;;;;;;;10.57;5.32;;;;;;;9.21;100.00;101605.22;6279570;22;20003;-90
2022/01/02 01:12:03;;;;;;;13.63;5.93;;;;;;;8.81;100.00;101528.88;6279514;22;20007;-90
2022/01/02 01:14:30;;;;;;;18.70;6.07;;;;;;;9.33;100.00;101612.84;6279077;22;20015;-90
2022/01/02 01:16:57;;;;;;;13.10;6.30;;;;;;;9.34;100.00;101628.91;6229275;22;20018;-89
2022/01/02 01:19:25;;;;;;;13.75;6.20;;;;;;;9.34;100.00;101611.84;6254234;22;20052;-90
2022/01/02 01:21:51;;;;;;;14.20;6.50;;;;;;;9.30;100.00;101611.34;6254175;22;20319;-91
2022/01/02 01:24:18;;;;;;;12.32;6.22;;;;;;;8.94;100.00;101558.81;6254069;22;20090;-90
2022/01/02 01:26:46;;;;;;;14.07;6.05;;;;;;;9.26;100.00;101593.81;6279581;22;20396;-91
2022/01/02 01:29:13;;;;;;;14.00;5.90;;;;;;;8.89;100.00;101549.59;6279823;22;20036;-90
2022/01/02 01:31:40;;;;;;;12.85;6.38;;;;;;;8.93;100.00;101540.91;6279756;22;20005;-91
2022/01/02 01:34:06;;;;;;;16.48;6.25;;;;;;;8.78;100.00;101521.13;6254496;22;20015;-90
2022/01/02 01:36:32;;;;;;;13.32;5.95;;;;;;;8.84;100.00;101520.38;6279663;22;20007;-91
2022/01/02 01:38:58;;;;;;;11.52;5.78;;;;;;;9.03;100.00;101547.91;6254894;22;20007;-90
2022/01/02 01:41:29;;;;;;;13.13;6.43;;;;;;;9.26;100.00;101593.81;6254620;22;20000;-91
2022/01/02 01:44:27;;;;;;;14.98;6.20;;;;;;;8.73;100.00;101510.03;6280035;22;20315;-91
2022/01/02 01:46:55;;;;;;;12.10;6.22;;;;;;;9.22;100.00;101576.28;6262863;22;20007;-90
2022/01/02 01:49:26;;;;;;;13.50;6.32;;;;;;;8.74;100.00;101493.63;6281232;22;20439;-90
2022/01/02 01:51:53;;;;;;;14.35;6.15;;;;;;;9.07;100.00;101541.09;6281502;22;20033;-90
2022/01/02 01:54:20;;;;;;;16.35;6.05;;;;;;;8.87;100.00;101521.88;6282192;22;19999;-91
2022/01/02 01:56:48;;;;;;;13.30;6.03;;;;;;;9.24;100.00;101576.91;6282001;22;20373;-91
2022/01/02 01:59:15;;;;;;;12.18;6.65;;;;;;;8.74;100.00;101476.53;6281551;22;20110;-90
2022/01/02 02:01:41;;;;;;;12.57;6.30;;;;;;;8.66;100.00;101466.66;6255770;22;20412;-89
2022/01/02 02:04:06;;;;;;;12.93;5.88;;;;;;;8.91;100.00;101515.06;6280597;22;20027;-89
2022/01/02 02:06:34;;;;;;;13.70;5.15;;;;;;;9.27;100.00;101555.72;6254636;22;20027;-89
2022/01/02 02:09:02;;;;;;;15.20;6.20;;;;;;;9.30;100.00;101543.66;6280686;22;20012;-89
2022/01/02 02:11:31;;;;;;;18.08;5.97;;;;;;;9.22;100.00;101524.81;6255463;22;20004;-89
2022/01/02 02:13:57;;;;;;;18.20;6.25;;;;;;;9.08;100.00;101504.84;6254894;22;20457;-90
2022/01/02 02:16:23;;;;;;;15.52;5.90;;;;;;;8.81;100.00;101452.28;6280993;22;20038;-90
2022/01/02 02:18:49;;;;;;;14.10;5.85;;;;;;;8.74;100.00;101427.81;6280958;22;20003;-90
2022/01/02 02:21:15;;;;;;;15.70;5.70;;;;;;;9.12;100.00;101485.34;6280842;22;20007;-90
2022/01/02 02:23:47;;;;;;;18.50;5.20;;;;;;;8.81;100.00;101428.75;6280652;22;20121;-90
2022/01/02 02:26:13;;;;;;;16.52;5.35;;;;;;;9.08;100.00;101473.22;6255199;22;20007;-90
2022/01/02 02:28:39;;;;;;;12.68;5.82;;;;;;;9.19;100.00;101488.13;6230415;22;20038;-91
2022/01/02 02:31:06;;;;;;;16.17;5.75;;;;;;;9.22;100.00;101478.78;6255559;22;20094;-90
2022/01/02 02:33:32;;;;;;;14.90;5.68;;;;;;;9.18;100.00;101472.91;6255460;22;20014;-90
2022/01/02 02:35:57;;;;;;;16.00;5.90;;;;;;;9.37;100.00;101503.13;6280525;22;20003;-90
2022/01/02 02:38:26;;;;;;;14.88;5.75;;;;;;;9.24;100.00;101487.56;6281093;22;20013;-90
2022/01/02 02:40:52;;;;;;;14.13;5.95;;;;;;;9.39;100.00;101511.88;6254922;22;20011;-90
2022/01/02 02:43:26;;;;;;;16.02;6.07;;;;;;;9.19;100.00;101477.28;6280954;22;20010;-90
2022/01/02 02:51:42;;;;;;;12.82;6.28;;;;;;;9.42;100.00;101484.41;6308043;22;20014;-90
2022/01/02 02:54:16;;;;;;;15.68;5.97;;;;;;;9.44;100.00;101479.66;6280642;22;19999;-90
2022/01/02 02:56:55;;;;;;;16.15;5.90;;;;;;;9.45;100.00;101479.47;6257136;22;20003;-90
2022/01/02 02:59:32;;;;;;;16.85;5.80;;;;;;;9.45;100.00;101467.81;6280556;22;20007;-90
2022/01/02 03:01:58;;;;;;;16.55;6.53;;;;;;;9.09;100.00;101418.06;6257541;22;20371;-91
2022/01/02 03:04:25;;;;;;;14.65;6.07;;;;;;;9.30;100.00;101454.28;6255332;22;20011;-90
2022/01/02 03:06:52;;;;;;;18.42;6.65;;;;;;;9.16;100.00;101422.72;6280699;22;20014;-91
2022/01/02 03:09:41;;;;;;;16.00;6.00;;;;;;;9.22;100.00;101443.59;6280978;22;20342;-91
2022/01/02 03:12:11;;;;;;;17.25;6.50;;;;;;;9.38;100.00;101447.94;6281951;22;20014;-91
2022/01/02 03:14:38;;;;;;;18.05;6.40;;;;;;;9.05;100.00;101388.84;6255519;22;20346;-91
2022/01/02 03:17:06;;;;;;;13.48;6.68;;;;;;;9.11;100.00;101397.03;6280626;22;20007;-91
2022/01/02 03:19:33;;;;;;;14.85;5.97;;;;;;;9.30;100.00;101428.06;6281565;22;20064;-92
2022/01/02 03:22:00;;;;;;;11.95;6.40;;;;;;;9.06;100.00;101391.34;6283957;22;19999;-91
2022/01/02 03:24:28;;;;;;;14.50;6.88;;;;;;;9.07;100.00;101392.22;6301155;22;20022;-90
2022/01/02 03:26:55;;;;;;;15.70;6.72;;;;;;;9.07;100.00;101393.03;6289134;22;20452;-91
2022/01/02 03:29:24;;;;;;;18.35;7.38;;;;;;;9.40;100.00;101429.59;6255283;22;20015;-91
2022/01/02 03:31:53;;;;;;;18.08;6.47;;;;;;;9.05;100.00;101387.00;6280612;22;20335;-90
2022/01/02 03:34:20;;;;;;;15.95;6.85;;;;;;;9.00;100.00;101392.13;6280587;22;20316;-91
2022/01/02 03:36:46;;;;;;;17.65;6.40;;;;;;;9.10;100.00;101402.66;6230285;22;20011;-91
2022/01/02 03:39:12;;;;;;;19.23;6.68;;;;;;;9.00;100.00;101386.72;6230104;22;20388;-90
2022/01/02 03:41:39;;;;;;;16.60;6.38;;;;;;;9.05;100.00;101394.25;6280593;22;20299;-90
2022/01/02 03:44:25;;;;;;;19.38;7.63;;;;;;;9.59;100.00;101475.00;6254564;22;20091;-90
2022/01/02 03:46:53;;;;;;;19.08;6.93;;;;;;;9.00;100.00;101378.59;6254878;22;20338;-91
2022/01/02 03:49:19;;;;;;;16.60;6.55;;;;;;;9.08;100.00;101381.19;6280384;22;20010;-91
2022/01/02 03:51:45;;;;;;;19.08;6.63;;;;;;;9.36;100.00;101429.16;6280056;22;20315;-90
2022/01/02 03:54:11;;;;;;;19.63;7.00;;;;;;;9.38;100.00;101427.09;6280404;22;20034;-91
2022/01/02 03:56:43;;;;;;;18.52;7.57;;;;;;;8.99;100.00;101360.69;6280770;22;20003;-91
2022/01/02 03:59:11;;;;;;;18.10;7.50;;;;;;;9.00;100.00;101356.94;6255836;22;20054;-90
2022/01/02 04:01:37;;;;;;;16.15;6.45;;;;;;;9.35;100.00;101408.53;6280805;22;20002;-91
2022/01/02 04:04:06;;;;;;;13.50;6.50;;;;;;;8.99;100.00;101344.47;6280344;22;20338;-91
2022/01/02 04:06:36;;;;;;;15.52;6.50;;;;;;;9.06;100.00;101349.91;6280485;22;20062;-91
2022/01/02 04:09:03;;;;;;;17.30;6.47;;;;;;;9.00;100.00;101338.00;6254802;22;20418;-90
2022/01/02 04:11:30;;;;;;;18.85;6.68;;;;;;;9.48;100.00;101395.09;6280711;22;20014;-91
2022/01/02 04:13:56;;;;;;;19.88;6.70;;;;;;;9.30;100.00;101375.75;6254977;22;20098;-91
2022/01/02 04:16:22;;;;;;;17.38;6.38;;;;;;;9.56;100.00;101414.97;6255099;22;20049;-91
2022/01/02 04:19:07;;;;;;;18.20;7.03;;;;;;;9.51;100.00;101415.56;6255229;22;20011;-91
2022/01/02 04:21:33;;;;;;;15.75;6.03;;;;;;;9.51;100.00;101418.25;6279891;22;20003;-90
2022/01/02 04:23:59;;;;;;;17.55;6.45;;;;;;;9.00;100.00;101337.16;6280442;22;19999;-90
2022/01/02 04:26:27;;;;;;;16.42;6.07;;;;;;;9.30;100.00;101384.75;6280475;22;20053;-91
2022/01/02 04:28:53;;;;;;;17.50;6.40;;;;;;;9.30;100.00;101387.44;6254639;22;20060;-91
2022/01/02 04:31:25;;;;;;;16.60;6.22;;;;;;;9.52;100.00;101419.09;6254661;22;20481;-90
2022/01/02 04:33:51;;;;;;;15.07;6.37;;;;;;;9.51;100.00;101414.69;6255145;22;20018;-91
2022/01/02 04:36:18;;;;;;;21.55;7.55;;;;;;;9.18;100.00;101356.47;6280740;22;20245;-92
2022/01/02 04:38:45;;;;;;;16.73;6.72;;;;;;;9.51;100.00;101409.28;6280235;22;20007;-91
2022/01/02 04:41:12;;;;;;;18.20;7.13;;;;;;;8.92;100.00;101311.91;6255374;22;20430;-91
2022/01/02 04:43:42;;;;;;;16.08;6.97;;;;;;;9.11;100.00;101345.59;6280163;22;20007;-91
2022/01/02 04:46:13;;;;;;;15.10;6.30;;;;;;;9.46;100.00;101390.91;6280921;22;20037;-91
2022/01/02 04:48:40;;;;;;;15.57;6.60;;;;;;;9.00;100.00;101310.94;6280970;22;20418;-91
2022/01/02 04:51:06;;;;;;;16.45;6.57;;;;;;;9.43;100.00;101372.34;6254883;22;20011;-91
2022/01/02 04:53:37;;;;;;;15.07;5.75;;;;;;;9.21;100.00;101333.59;6254669;22;20434;-91
2022/01/02 04:56:05;;;;;;;15.85;6.32;;;;;;;8.83;100.00;101268.91;6230268;22;20338;-91
2022/01/02 04:58:31;;;;;;;17.40;6.85;;;;;;;8.75;100.00;101257.22;6228004;22;20023;-90
2022/01/02 05:00:58;;;;;;;16.17;6.28;;;;;;;8.81;100.00;101250.16;6280470;22;20003;-91
2022/01/02 05:03:27;;;;;;;14.48;6.03;;;;;;;9.24;100.00;101287.19;6255001;22;20011;-90
2022/01/02 05:05:57;;;;;;;14.23;6.30;;;;;;;9.02;100.00;101267.44;6280724;22;20400;-91
2022/01/02 05:08:44;;;;;;;16.50;5.93;;;;;;;9.38;100.00;101320.66;6254816;22;20012;-91
2022/01/02 05:11:11;;;;;;;14.98;6.53;;;;;;;9.12;100.00;101273.34;6280930;22;19999;-91
2022/01/02 05:13:45;;;;;;;11.93;6.00;;;;;;;8.78;100.00;101216.25;6230017;22;20026;-91
2022/01/02 05:16:19;;;;;;;17.52;6.13;;;;;;;8.77;100.00;101200.19;6280068;22;20392;-91
2022/01/02 05:18:46;;;;;;;14.82;5.75;;;;;;;9.13;100.00;101272.31;6256192;22;20073;-91
2022/01/02 05:21:15;;;;;;;18.23;6.00;;;;;;;8.73;100.00;101215.16;6281864;22;20345;-90
2022/01/02 05:23:42;;;;;;;14.38;5.65;;;;;;;9.17;100.00;101270.91;6282193;22;20090;-90
2022/01/02 05:26:10;;;;;;;19.20;6.00;;;;;;;9.12;100.00;101267.94;6256652;22;20042;-90
2022/01/02 05:28:36;;;;;;;15.13;5.80;;;;;;;9.11;100.00;101263.56;6256169;22;20007;-91
2022/01/02 05:31:03;;;;;;;13.82;5.80;;;;;;;9.11;100.00;101258.97;6281392;22;20010;-90
2022/01/02 05:33:29;;;;;;;13.45;6.05;;;;;;;8.73;100.00;101191.63;6256456;22;20011;-91
2022/01/02 05:35:55;;;;;;;15.68;5.72;;;;;;;8.72;100.00;101178.28;6280665;22;20029;-91
2022/01/02 05:38:24;;;;;;;15.88;6.20;;;;;;;8.74;100.00;101193.31;6256510;22;20007;-91
2022/01/02 05:40:52;;;;;;;14.95;5.82;;;;;;;8.76;100.00;101185.00;6256662;22;20042;-91
2022/01/02 05:43:18;;;;;;;19.42;6.63;;;;;;;8.81;100.00;101197.94;6281952;22;19999;-91
2022/01/02 05:45:46;;;;;;;13.85;6.05;;;;;;;8.74;100.00;101181.63;6281974;22;20035;-91
2022/01/02 05:48:15;;;;;;;15.18;6.75;;;;;;;9.27;100.00;101259.72;6257040;22;20012;-90
2022/01/02 05:50:42;;;;;;;17.27;6.65;;;;;;;8.88;100.00;101213.19;6231670;22;20434;-91
2022/01/02 05:53:08;;;;;;;20.90;6.68;;;;;;;8.61;100.00;101144.50;6256079;22;20373;-90
2022/01/02 05:55:35;;;;;;;16.65;6.28;;;;;;;9.01;100.00;101200.81;6281857;22;20450;-90
2022/01/02 05:58:07;;;;;;;17.67;6.40;;;;;;;8.79;100.00;101154.84;6256638;22;20007;-90
2022/01/02 06:00:34;;;;;;;16.55;6.53;;;;;;;8.58;100.00;101117.84;6282302;22;20031;-92
2022/01/02 06:03:02;;;;;;;19.23;6.38;;;;;;;8.45;100.00;101083.41;6281656;22;20330;-92
2022/01/02 06:05:31;;;;;;;16.48;6.60;;;;;;;8.55;100.00;101100.13;6282231;22;20038;-92
2022/01/02 06:08:04;;;;;;;15.25;6.05;;;;;;;8.93;100.00;101156.63;6257130;22;20377;-91
2022/01/02 06:10:32;;;;;;;16.15;5.90;;;;;;;9.17;100.00;101205.06;6282888;22;20061;-92
2022/01/02 06:13:05;;;;;;;13.18;5.30;;;;;;;8.64;100.00;101113.53;6281886;22;20342;-92
2022/01/02 06:15:34;;;;;;;13.55;5.63;;;;;;;8.93;100.00;101140.38;6258163;22;20354;-92
2022/01/02 06:18:02;;;;;;;15.82;5.30;;;;;;;8.46;100.00;101068.88;6289495;22;20350;-92
2022/01/02 06:20:29;;;;;;;10.55;5.38;;;;;;;8.45;100.00;101060.94;6298241;22;20027;-93
2022/01/02 06:22:56;;;;;;;12.90;5.40;;;;;;;8.87;100.00;101126.78;6284511;22;20000;-91
2022/01/02 06:25:26;;;;;;;13.18;5.55;;;;;;;8.56;100.00;101054.97;6281384;22;20030;-92
2022/01/02 06:27:53;;;;;;;11.93;5.25;;;;;;;8.51;100.00;101042.06;6281940;22;20027;-91
2022/01/02 06:30:23;;;;;;;12.15;4.93;;;;;;;8.83;100.00;101077.66;6281702;22;20026;-92
2022/01/02 06:32:54;;;;;;;12.63;5.82;;;;;;;9.04;100.00;101114.63;6281525;22;20003;-91
2022/01/02 06:35:25;;;;;;;14.73;5.18;;;;;;;8.47;100.00;101007.50;6281752;22;20346;-92
2022/01/02 06:38:12;;;;;;;10.48;4.82;;;;;;;8.88;100.00;101050.81;6281980;22;20342;-91
2022/01/02 06:40:57;;;;;;;12.23;5.72;;;;;;;8.46;100.00;100982.34;6258594;22;20011;-92
2022/01/02 06:43:41;;;;;;;9.85;5.05;;;;;;;8.39;100.00;100968.72;6282391;22;20039;-91
2022/01/02 06:46:24;;;;;;;;;;;;;;;;;;;;;
2022/01/02 06:59:41;;;;;;;10.40;4.88;;;;;;;8.35;100.00;100915.25;6156009;23;20052;-93
2022/01/02 07:02:13;;;;;;;12.05;4.80;;;;;;;9.05;100.00;101020.72;6128075;23;20017;-90
2022/01/02 07:04:40;;;;;;;11.77;4.13;;;;;;;8.84;100.00;100994.59;6126175;22;21371;-89
2022/01/02 07:07:06;;;;;;;7.57;3.97;;;;;;;9.01;100.00;101022.19;6255577;22;20011;-89
2022/01/02 07:09:33;;;;;;;12.38;4.70;;;;;;;9.01;100.00;101022.19;6230219;22;20086;-90
2022/01/02 07:12:24;;;;;;;11.43;4.43;;;;;;;8.65;100.00;100966.41;6254923;22;20030;-95
2022/01/02 07:14:51;;;;;;;8.15;3.85;;;;;;;8.34;100.00;100936.06;6256495;22;20043;-94
2022/01/02 07:17:40;;;;;;;7.45;4.13;;;;;;;8.28;100.00;100931.41;6308440;22;20006;-91
2022/01/02 07:20:16;;;;;;;10.32;4.28;;;;;;;8.39;100.00;100966.03;6281459;22;20080;-89
2022/01/02 07:23:02;;;;;;;9.18;3.83;;;;;;;8.74;100.00;101014.75;6281172;22;20316;-90
2022/01/02 07:25:37;;;;;;;8.27;3.90;;;;;;;8.38;100.00;100944.59;6281053;22;20010;-91
2022/01/02 07:28:04;;;;;;;11.30;4.35;;;;;;;8.51;100.00;100947.41;6256038;22;20345;-91
2022/01/02 07:34:10;;;;;;;6.72;3.45;;;;;;;8.24;100.00;100889.63;6308553;22;20014;-94
2022/01/02 10:08:20;;;;;;;10.52;4.32;;;;;;;11.08;88.55;101067.66;6116400;23;20079;-96
2022/01/02 10:10:59;;;;;;;8.88;4.35;;;;;;;11.22;87.38;101061.97;6122294;23;20025;-94
2022/01/02 10:14:25;;;;;;;;;;;;;;;;;;;;;
2022/01/02 10:24:47;;;;;;;11.38;4.35;;;;;;;11.39;86.27;101065.03;5872436;24;20073;-95
2022/01/02 11:02:35;;;;;;;;;;;;;;;;;;;;;
2022/01/02 11:13:07;;;;;;;;;;;;;;;;;;;;;
2022/01/02 11:16:33;;;;;;;;;;;;;;;;;;;;;
2022/01/02 12:43:30;;;;;;;9.55;3.13;;;;;;;12.18;80.35;100969.63;6184984;23;20075;-93
2022/01/02 12:46:29;;;;;;;9.50;3.20;;;;;;;12.45;80.21;101004.75;6050483;23;20023;-91
2022/01/02 15:07:04;;;;;;;;;;;;;;;;;;;;;
2022/01/02 16:13:07;;;;;;;8.48;2.00;;;;;;;11.83;78.42;101027.19;6001000;23;20067;-95
2022/01/02 16:18:31;;;;;;;12.40;2.38;;;;;;;11.37;78.80;100969.34;6145069;23;20511;-92
2022/01/02 16:21:19;;;;;;;10.05;2.38;;;;;;;11.74;79.35;101032.03;6153978;23;20016;-96
2022/01/02 17:58:21;;;;;;;;;;;;;;;;;;;;;
2022/01/02 18:36:15;;;;;;;;;;;;;;;;;;;;;
2022/01/02 18:57:18;;;;;;;;;;;;;;;;;;;;;
2022/01/02 20:58:49;;;;;;;18.02;4.38;;;;;;;9.66;98.05;100844.63;6244319;22;20031;-95
2022/01/02 21:30:12;;;;;;;12.57;3.60;;;;;;;9.40;95.69;100891.50;6278274;22;20024;-92
2022/01/02 21:32:38;;;;;;;10.90;3.50;;;;;;;9.15;95.59;100847.94;6277645;22;20011;-92
2022/01/02 21:35:17;;;;;;;15.98;4.20;;;;;;;9.18;94.99;100849.41;6251343;22;20015;-92
2022/01/02 21:37:52;;;;;;;12.93;4.45;;;;;;;9.48;94.70;100894.03;6251045;22;20358;-92
2022/01/02 21:40:24;;;;;;;13.65;4.68;;;;;;;9.39;94.70;100883.59;6251342;22;20065;-91
2022/01/02 21:42:54;;;;;;;16.98;4.88;;;;;;;9.23;94.38;100858.59;6277788;22;20057;-92
2022/01/02 21:45:26;;;;;;;15.45;4.97;;;;;;;9.16;94.76;100863.16;6250908;22;20015;-91
2022/01/02 21:47:55;;;;;;;14.18;5.00;;;;;;;9.16;94.88;100865.03;6277338;22;20433;-91
2022/01/02 21:50:23;;;;;;;17.38;4.43;;;;;;;9.16;94.41;100873.16;6249986;22;20007;-91
2022/01/02 21:52:59;;;;;;;16.58;4.22;;;;;;;9.38;94.08;100901.72;6250181;22;20006;-91
2022/01/02 21:55:25;;;;;;;18.23;4.13;;;;;;;9.35;93.82;100904.84;6277500;22;20443;-90
2022/01/02 21:57:54;;;;;;;17.70;4.25;;;;;;;9.18;94.19;100873.78;6277414;22;20000;-91
2022/01/02 22:00:21;;;;;;;22.17;3.97;;;;;;;9.13;94.61;100883.34;6249905;22;20008;-91
2022/01/02 22:02:50;;;;;;;18.88;3.72;;;;;;;9.23;93.54;100918.16;6249556;22;20003;-91
2022/01/02 22:05:16;;;;;;;19.23;4.20;;;;;;;9.11;93.69;100914.38;6250090;22;20015;-91
2022/01/02 22:07:43;;;;;;;13.95;3.70;;;;;;;9.24;93.11;100956.88;6250042;22;20334;-91
2022/01/02 22:10:09;;;;;;;18.73;3.15;;;;;;;9.39;92.81;100975.66;6221736;22;20015;-91
2022/01/02 22:12:37;;;;;;;16.95;3.92;;;;;;;9.46;92.83;100973.81;6219523;23;20000;-92
2022/01/02 22:15:39;;;;;;;18.80;3.90;;;;;;;9.26;92.09;100925.03;6220177;23;20154;-92
2022/01/02 22:18:06;;;;;;;19.03;3.50;;;;;;;9.22;91.47;100942.72;6213491;23;20008;-92
2022/01/02 22:20:38;;;;;;;19.13;3.55;;;;;;;9.21;91.53;100941.03;6194353;23;20265;-92
2022/01/02 22:23:15;;;;;;;18.30;3.70;;;;;;;9.24;91.03;100948.75;6219711;23;20012;-92
2022/01/02 22:25:53;;;;;;;21.75;3.80;;;;;;;9.57;90.06;100984.03;6194757;23;20497;-92
2022/01/02 22:28:23;;;;;;;15.18;3.00;;;;;;;9.54;89.93;101000.72;6220121;23;20447;-92
2022/01/02 22:30:50;;;;;;;12.65;2.90;;;;;;;9.41;89.66;100970.88;6220335;23;20343;-91
2022/01/02 22:33:19;;;;;;;13.95;3.03;;;;;;;9.61;88.71;101022.38;6219751;23;20351;-92
2022/01/02 22:35:51;;;;;;;14.93;3.72;;;;;;;9.56;89.41;100998.63;6219626;23;20016;-91
2022/01/02 22:38:18;;;;;;;14.88;3.60;;;;;;;9.21;89.88;100958.13;6218717;23;20070;-92
2022/01/02 22:40:50;;;;;;;16.50;3.63;;;;;;;9.38;88.65;100979.41;6219684;23;20008;-90
2022/01/02 22:43:16;;;;;;;16.48;3.45;;;;;;;9.25;88.54;100962.09;6219261;23;20027;-91
2022/01/02 22:45:45;;;;;;;19.15;3.70;;;;;;;9.23;88.13;100950.63;6219519;23;20339;-91
2022/01/02 22:48:12;;;;;;;14.60;3.58;;;;;;;9.39;88.57;100992.75;6219075;23;20008;-91
2022/01/02 22:50:40;;;;;;;16.73;3.88;;;;;;;9.30;88.00;101004.78;6218939;23;20008;-90
2022/01/02 22:53:09;;;;;;;18.95;3.95;;;;;;;9.45;87.56;100970.28;6245872;23;20050;-91
2022/01/02 22:55:42;;;;;;;18.15;4.30;;;;;;;9.57;87.92;101018.44;6217406;23;20012;-91
2022/01/02 22:58:11;;;;;;;17.42;3.70;;;;;;;9.23;88.32;100966.06;6219608;23;20011;-92
2022/01/02 23:00:37;;;;;;;17.77;3.53;;;;;;;9.70;88.00;101056.41;6219252;23;20331;-92
2022/01/02 23:03:14;;;;;;;18.70;3.80;;;;;;;9.57;87.55;101034.69;6219798;23;20008;-91
2022/01/02 23:05:43;;;;;;;17.85;4.07;;;;;;;9.30;87.43;100973.16;6220169;23;20011;-92
2022/01/02 23:08:21;;;;;;;19.42;3.60;;;;;;;9.29;87.62;100957.94;6219888;23;20019;-92
2022/01/02 23:10:47;;;;;;;18.75;3.60;;;;;;;9.57;86.87;101029.28;6246579;23;20018;-92
2022/01/02 23:13:13;;;;;;;19.70;3.80;;;;;;;9.59;86.94;101030.72;6219757;23;20004;-92
2022/01/02 23:15:54;;;;;;;23.20;3.65;;;;;;;9.27;86.87;100980.81;6244889;23;20008;-91
2022/01/02 23:18:30;;;;;;;19.58;3.85;;;;;;;9.27;86.99;100984.38;6246460;23;20071;-92
2022/01/02 23:20:57;;;;;;;20.67;3.97;;;;;;;9.21;87.25;100995.19;6195284;23;20016;-92
2022/01/02 23:23:24;;;;;;;22.77;3.90;;;;;;;9.17;87.32;100983.09;6219652;23;20012;-92
2022/01/02 23:25:52;;;;;;;23.55;4.70;;;;;;;9.30;87.41;100996.66;6219925;23;20514;-91
2022/01/02 23:28:22;;;;;;;24.45;3.80;;;;;;;9.11;87.26;100982.88;6220155;23;20019;-92
2022/01/02 23:30:48;;;;;;;19.48;3.80;;;;;;;9.43;87.17;101021.09;6219117;23;20028;-92
2022/01/02 23:33:14;;;;;;;22.13;4.25;;;;;;;9.18;86.85;100984.75;6219201;23;20011;-92
2022/01/02 23:35:42;;;;;;;23.63;3.92;;;;;;;9.50;86.95;101023.00;6219329;23;20005;-92
2022/01/02 23:38:12;;;;;;;25.02;3.90;;;;;;;9.39;86.78;101009.00;6245985;23;20035;-92
2022/01/02 23:40:41;;;;;;;21.48;3.85;;;;;;;9.58;87.87;101039.03;6219368;23;20541;-92
2022/01/02 23:43:12;;;;;;;22.52;4.38;;;;;;;9.11;88.33;100976.63;6218903;23;20443;-92
2022/01/02 23:46:04;;;;;;;24.15;4.20;;;;;;;9.00;89.82;100972.63;6219316;23;20055;-92
2022/01/02 23:48:33;;;;;;;24.50;4.28;;;;;;;8.92;88.77;100975.50;6219636;23;20015;-92
2022/01/02 23:51:01;;;;;;;21.48;3.95;;;;;;;9.21;89.00;101027.66;6219411;23;20044;-92
2022/01/02 23:53:47;;;;;;;;;;;;;;;;;;;;;
2022/01/02 23:56:26;;;;;;;20.80;3.88;;;;;;;8.85;89.10;100966.53;6246471;23;20082;-92
2022/01/02 23:58:57;;;;;;;22.75;4.32;;;;;;;9.15;89.37;101025.78;6219821;23;20004;-92
